Home

PKWA Terminal Aerodrome Forecast (TAF)small logo


TAF provided by NWS Guam
2015/02/01 06:45
TAF PKWA 010540Z 0106/0206 06011KT P6SM FEW020 SCT040

      



Site Map | Contact Us | Copyright © 2007 Atmospheric Technology Services Company. All rights reserved.